sensor_id;sensor_type;location;lat;lon;timestamp;P1;durP1;ratioP1;P2;durP2;ratioP2
82391;SDS011;72030;52.284;20.890;2023-11-19T00:00:41;9.80;;;7.60;;
82391;SDS011;72030;52.284;20.890;2023-11-19T00:03:11;10.70;;;7.40;;
82391;SDS011;72030;52.284;20.890;2023-11-19T00:05:40;9.50;;;7.70;;
82391;SDS011;72030;52.284;20.890;2023-11-19T00:08:11;10.60;;;7.50;;
82391;SDS011;72030;52.284;20.890;2023-11-19T00:10:40;9.50;;;7.30;;
82391;SDS011;72030;52.284;20.890;2023-11-19T00:13:09;10.70;;;7.90;;
82391;SDS011;72030;52.284;20.890;2023-11-19T00:15:38;11.00;;;7.50;;
82391;SDS011;72030;52.284;20.890;2023-11-19T00:18:08;11.00;;;7.80;;
82391;SDS011;72030;52.284;20.890;2023-11-19T00:20:37;10.20;;;7.30;;
82391;SDS011;72030;52.284;20.890;2023-11-19T00:23:07;10.40;;;7.10;;
82391;SDS011;72030;52.284;20.890;2023-11-19T00:25:36;9.60;;;7.50;;
82391;SDS011;72030;52.284;20.890;2023-11-19T00:28:06;9.60;;;7.50;;
82391;SDS011;72030;52.284;20.890;2023-11-19T00:30:35;9.70;;;7.70;;
82391;SDS011;72030;52.284;20.890;2023-11-19T00:33:07;9.50;;;7.50;;
82391;SDS011;72030;52.284;20.890;2023-11-19T00:35:36;8.90;;;6.80;;
82391;SDS011;72030;52.284;20.890;2023-11-19T00:38:05;9.90;;;8.00;;
82391;SDS011;72030;52.284;20.890;2023-11-19T00:40:35;9.90;;;7.80;;
82391;SDS011;72030;52.284;20.890;2023-11-19T00:43:04;9.10;;;7.20;;
82391;SDS011;72030;52.284;20.890;2023-11-19T00:45:33;10.20;;;8.00;;
82391;SDS011;72030;52.284;20.890;2023-11-19T00:48:03;8.90;;;7.60;;
82391;SDS011;72030;52.284;20.890;2023-11-19T00:50:33;9.90;;;7.30;;
82391;SDS011;72030;52.284;20.890;2023-11-19T00:53:02;9.70;;;7.60;;
82391;SDS011;72030;52.284;20.890;2023-11-19T00:55:32;9.50;;;7.20;;
82391;SDS011;72030;52.284;20.890;2023-11-19T00:58:01;10.80;;;7.10;;
82391;SDS011;72030;52.284;20.890;2023-11-19T01:00:30;8.70;;;7.20;;
82391;SDS011;72030;52.284;20.890;2023-11-19T01:03:01;8.40;;;6.70;;
82391;SDS011;72030;52.284;20.890;2023-11-19T01:05:32;9.10;;;7.20;;
82391;SDS011;72030;52.284;20.890;2023-11-19T01:08:02;8.50;;;7.00;;
82391;SDS011;72030;52.284;20.890;2023-11-19T01:10:33;9.20;;;7.30;;
82391;SDS011;72030;52.284;20.890;2023-11-19T01:13:04;7.70;;;6.40;;
82391;SDS011;72030;52.284;20.890;2023-11-19T01:15:33;10.10;;;7.40;;
82391;SDS011;72030;52.284;20.890;2023-11-19T01:18:03;8.40;;;7.10;;
82391;SDS011;72030;52.284;20.890;2023-11-19T01:20:36;8.50;;;6.90;;
82391;SDS011;72030;52.284;20.890;2023-11-19T01:23:05;8.30;;;6.80;;
82391;SDS011;72030;52.284;20.890;2023-11-19T01:25:34;8.60;;;6.80;;
82391;SDS011;72030;52.284;20.890;2023-11-19T01:28:04;7.80;;;6.80;;
82391;SDS011;72030;52.284;20.890;2023-11-19T01:30:33;8.20;;;7.00;;
82391;SDS011;72030;52.284;20.890;2023-11-19T01:33:03;8.10;;;6.90;;
82391;SDS011;72030;52.284;20.890;2023-11-19T01:35:34;7.80;;;6.60;;
82391;SDS011;72030;52.284;20.890;2023-11-19T01:38:03;9.50;;;7.20;;
82391;SDS011;72030;52.284;20.890;2023-11-19T01:40:32;7.30;;;6.20;;
82391;SDS011;72030;52.284;20.890;2023-11-19T01:43:01;8.20;;;6.60;;
82391;SDS011;72030;52.284;20.890;2023-11-19T01:45:30;8.10;;;6.70;;
82391;SDS011;72030;52.284;20.890;2023-11-19T01:48:02;7.90;;;6.50;;
82391;SDS011;72030;52.284;20.890;2023-11-19T01:50:32;7.90;;;6.70;;
82391;SDS011;72030;52.284;20.890;2023-11-19T01:53:03;9.20;;;7.00;;
82391;SDS011;72030;52.284;20.890;2023-11-19T01:55:32;9.20;;;7.20;;
82391;SDS011;72030;52.284;20.890;2023-11-19T01:58:01;7.80;;;6.80;;
82391;SDS011;72030;52.284;20.890;2023-11-19T02:00:31;7.80;;;6.70;;
82391;SDS011;72030;52.284;20.890;2023-11-19T02:03:01;7.20;;;6.40;;
82391;SDS011;72030;52.284;20.890;2023-11-19T02:05:31;8.30;;;6.80;;
82391;SDS011;72030;52.284;20.890;2023-11-19T02:08:00;9.60;;;7.50;;
82391;SDS011;72030;52.284;20.890;2023-11-19T02:10:30;10.40;;;7.20;;
82391;SDS011;72030;52.284;20.890;2023-11-19T02:13:00;8.10;;;7.10;;
82391;SDS011;72030;52.284;20.890;2023-11-19T02:15:31;7.20;;;6.50;;
82391;SDS011;72030;52.284;20.890;2023-11-19T02:20:37;9.40;;;7.00;;
82391;SDS011;72030;52.284;20.890;2023-11-19T02:23:07;8.90;;;7.00;;
82391;SDS011;72030;52.284;20.890;2023-11-19T02:25:36;7.50;;;6.70;;
82391;SDS011;72030;52.284;20.890;2023-11-19T02:28:08;8.70;;;7.00;;
82391;SDS011;72030;52.284;20.890;2023-11-19T02:30:39;8.40;;;6.80;;
82391;SDS011;72030;52.284;20.890;2023-11-19T02:33:08;8.10;;;6.70;;
82391;SDS011;72030;52.284;20.890;2023-11-19T02:35:39;8.30;;;7.20;;
82391;SDS011;72030;52.284;20.890;2023-11-19T02:38:09;9.30;;;7.30;;
82391;SDS011;72030;52.284;20.890;2023-11-19T02:40:41;8.10;;;7.00;;
82391;SDS011;72030;52.284;20.890;2023-11-19T02:43:10;8.20;;;7.30;;
82391;SDS011;72030;52.284;20.890;2023-11-19T02:45:39;8.20;;;7.20;;
82391;SDS011;72030;52.284;20.890;2023-11-19T02:48:12;8.20;;;7.20;;
82391;SDS011;72030;52.284;20.890;2023-11-19T02:50:42;8.10;;;6.90;;
82391;SDS011;72030;52.284;20.890;2023-11-19T02:53:13;7.90;;;7.00;;
82391;SDS011;72030;52.284;20.890;2023-11-19T02:55:44;9.40;;;7.40;;
82391;SDS011;72030;52.284;20.890;2023-11-19T02:58:16;9.60;;;7.60;;
82391;SDS011;72030;52.284;20.890;2023-11-19T03:00:51;8.60;;;6.80;;
82391;SDS011;72030;52.284;20.890;2023-11-19T03:03:24;8.10;;;7.20;;
82391;SDS011;72030;52.284;20.890;2023-11-19T03:06:05;8.90;;;6.90;;
82391;SDS011;72030;52.284;20.890;2023-11-19T03:08:36;8.70;;;7.60;;
82391;SDS011;72030;52.284;20.890;2023-11-19T03:11:05;7.80;;;6.50;;
82391;SDS011;72030;52.284;20.890;2023-11-19T03:13:35;8.70;;;7.20;;
82391;SDS011;72030;52.284;20.890;2023-11-19T03:16:05;9.20;;;7.20;;
82391;SDS011;72030;52.284;20.890;2023-11-19T03:18:35;8.10;;;7.30;;
82391;SDS011;72030;52.284;20.890;2023-11-19T03:21:05;7.50;;;6.70;;
82391;SDS011;72030;52.284;20.890;2023-11-19T03:23:36;8.70;;;7.00;;
82391;SDS011;72030;52.284;20.890;2023-11-19T03:26:07;9.00;;;8.00;;
82391;SDS011;72030;52.284;20.890;2023-11-19T03:28:38;9.70;;;7.90;;
82391;SDS011;72030;52.284;20.890;2023-11-19T03:31:07;8.40;;;6.80;;
82391;SDS011;72030;52.284;20.890;2023-11-19T03:33:36;8.60;;;7.30;;
82391;SDS011;72030;52.284;20.890;2023-11-19T03:36:06;8.40;;;7.40;;
82391;SDS011;72030;52.284;20.890;2023-11-19T03:38:37;7.70;;;6.90;;
82391;SDS011;72030;52.284;20.890;2023-11-19T03:41:11;9.00;;;7.40;;
82391;SDS011;72030;52.284;20.890;2023-11-19T03:43:41;9.70;;;7.50;;
82391;SDS011;72030;52.284;20.890;2023-11-19T03:48:47;9.00;;;8.00;;
82391;SDS011;72030;52.284;20.890;2023-11-19T03:51:17;10.80;;;8.50;;
82391;SDS011;72030;52.284;20.890;2023-11-19T03:53:46;10.20;;;7.80;;
82391;SDS011;72030;52.284;20.890;2023-11-19T03:56:15;8.70;;;7.50;;
82391;SDS011;72030;52.284;20.890;2023-11-19T03:58:45;9.30;;;7.70;;
82391;SDS011;72030;52.284;20.890;2023-11-19T04:01:14;9.20;;;8.20;;
82391;SDS011;72030;52.284;20.890;2023-11-19T04:03:43;9.60;;;7.80;;
82391;SDS011;72030;52.284;20.890;2023-11-19T04:06:13;8.80;;;7.80;;
82391;SDS011;72030;52.284;20.890;2023-11-19T04:08:42;8.80;;;7.60;;
82391;SDS011;72030;52.284;20.890;2023-11-19T04:11:12;9.70;;;7.90;;
82391;SDS011;72030;52.284;20.890;2023-11-19T04:13:41;9.90;;;7.80;;
82391;SDS011;72030;52.284;20.890;2023-11-19T04:16:10;9.60;;;8.30;;
82391;SDS011;72030;52.284;20.890;2023-11-19T04:18:41;9.00;;;8.00;;
82391;SDS011;72030;52.284;20.890;2023-11-19T04:21:10;8.40;;;7.30;;
82391;SDS011;72030;52.284;20.890;2023-11-19T04:23:39;11.50;;;8.70;;
82391;SDS011;72030;52.284;20.890;2023-11-19T04:26:08;9.90;;;8.20;;
82391;SDS011;72030;52.284;20.890;2023-11-19T04:28:37;9.10;;;7.50;;
82391;SDS011;72030;52.284;20.890;2023-11-19T04:31:07;9.10;;;7.80;;
82391;SDS011;72030;52.284;20.890;2023-11-19T04:33:37;9.90;;;8.00;;
82391;SDS011;72030;52.284;20.890;2023-11-19T04:36:07;10.20;;;8.00;;
82391;SDS011;72030;52.284;20.890;2023-11-19T04:38:38;9.20;;;8.00;;
82391;SDS011;72030;52.284;20.890;2023-11-19T04:41:07;10.30;;;8.40;;
82391;SDS011;72030;52.284;20.890;2023-11-19T04:43:37;10.30;;;8.60;;
82391;SDS011;72030;52.284;20.890;2023-11-19T04:46:07;9.40;;;7.90;;
82391;SDS011;72030;52.284;20.890;2023-11-19T04:48:38;10.90;;;8.30;;
82391;SDS011;72030;52.284;20.890;2023-11-19T04:51:07;10.50;;;8.00;;
82391;SDS011;72030;52.284;20.890;2023-11-19T04:53:37;8.60;;;7.40;;
82391;SDS011;72030;52.284;20.890;2023-11-19T04:56:09;9.00;;;7.90;;
82391;SDS011;72030;52.284;20.890;2023-11-19T04:58:39;9.10;;;7.90;;
82391;SDS011;72030;52.284;20.890;2023-11-19T05:01:13;9.70;;;8.00;;
82391;SDS011;72030;52.284;20.890;2023-11-19T05:03:44;10.30;;;8.50;;
82391;SDS011;72030;52.284;20.890;2023-11-19T05:06:13;9.20;;;8.10;;
82391;SDS011;72030;52.284;20.890;2023-11-19T05:08:42;10.70;;;7.60;;
82391;SDS011;72030;52.284;20.890;2023-11-19T05:11:12;9.80;;;7.90;;
82391;SDS011;72030;52.284;20.890;2023-11-19T05:13:45;8.90;;;7.20;;
82391;SDS011;72030;52.284;20.890;2023-11-19T05:16:14;10.00;;;8.40;;
82391;SDS011;72030;52.284;20.890;2023-11-19T05:18:44;9.50;;;7.80;;
82391;SDS011;72030;52.284;20.890;2023-11-19T05:21:13;7.90;;;7.10;;
82391;SDS011;72030;52.284;20.890;2023-11-19T05:23:44;9.40;;;7.80;;
82391;SDS011;72030;52.284;20.890;2023-11-19T05:26:18;7.80;;;6.90;;
82391;SDS011;72030;52.284;20.890;2023-11-19T05:28:48;9.30;;;7.60;;
82391;SDS011;72030;52.284;20.890;2023-11-19T05:31:18;8.60;;;7.60;;
82391;SDS011;72030;52.284;20.890;2023-11-19T05:33:47;7.90;;;7.00;;
82391;SDS011;72030;52.284;20.890;2023-11-19T05:36:17;9.00;;;7.80;;
82391;SDS011;72030;52.284;20.890;2023-11-19T05:38:46;8.30;;;7.30;;
82391;SDS011;72030;52.284;20.890;2023-11-19T05:41:15;8.10;;;7.00;;
82391;SDS011;72030;52.284;20.890;2023-11-19T05:43:44;8.10;;;6.30;;
82391;SDS011;72030;52.284;20.890;2023-11-19T05:46:13;7.90;;;6.80;;
82391;SDS011;72030;52.284;20.890;2023-11-19T05:48:43;7.60;;;6.80;;
82391;SDS011;72030;52.284;20.890;2023-11-19T05:51:13;7.70;;;6.80;;
82391;SDS011;72030;52.284;20.890;2023-11-19T05:53:42;8.00;;;7.20;;
82391;SDS011;72030;52.284;20.890;2023-11-19T05:56:13;8.90;;;7.00;;
82391;SDS011;72030;52.284;20.890;2023-11-19T05:58:47;7.30;;;6.60;;
82391;SDS011;72030;52.284;20.890;2023-11-19T06:01:17;8.40;;;7.10;;
82391;SDS011;72030;52.284;20.890;2023-11-19T06:03:47;6.70;;;6.00;;
82391;SDS011;72030;52.284;20.890;2023-11-19T06:06:16;7.50;;;6.60;;
82391;SDS011;72030;52.284;20.890;2023-11-19T06:08:46;8.40;;;7.20;;
82391;SDS011;72030;52.284;20.890;2023-11-19T06:11:17;7.50;;;6.70;;
82391;SDS011;72030;52.284;20.890;2023-11-19T06:13:47;7.60;;;6.50;;
82391;SDS011;72030;52.284;20.890;2023-11-19T06:16:17;8.20;;;6.60;;
82391;SDS011;72030;52.284;20.890;2023-11-19T06:18:46;7.10;;;6.40;;
82391;SDS011;72030;52.284;20.890;2023-11-19T06:21:16;7.10;;;6.30;;
82391;SDS011;72030;52.284;20.890;2023-11-19T06:23:45;7.00;;;6.00;;
82391;SDS011;72030;52.284;20.890;2023-11-19T06:26:15;9.40;;;7.00;;
82391;SDS011;72030;52.284;20.890;2023-11-19T06:28:44;7.30;;;6.30;;
82391;SDS011;72030;52.284;20.890;2023-11-19T06:31:14;6.90;;;6.20;;
82391;SDS011;72030;52.284;20.890;2023-11-19T06:33:43;6.70;;;6.00;;
82391;SDS011;72030;52.284;20.890;2023-11-19T06:36:15;6.90;;;5.90;;
82391;SDS011;72030;52.284;20.890;2023-11-19T06:38:44;7.10;;;6.20;;
82391;SDS011;72030;52.284;20.890;2023-11-19T06:41:13;7.10;;;6.40;;
82391;SDS011;72030;52.284;20.890;2023-11-19T06:43:42;7.50;;;6.30;;
82391;SDS011;72030;52.284;20.890;2023-11-19T06:48:45;5.80;;;5.20;;
82391;SDS011;72030;52.284;20.890;2023-11-19T06:51:15;7.30;;;6.60;;
82391;SDS011;72030;52.284;20.890;2023-11-19T06:53:44;7.50;;;6.80;;
82391;SDS011;72030;52.284;20.890;2023-11-19T06:58:48;7.90;;;6.50;;
82391;SDS011;72030;52.284;20.890;2023-11-19T07:01:18;6.00;;;5.40;;
82391;SDS011;72030;52.284;20.890;2023-11-19T07:03:48;6.30;;;5.70;;
82391;SDS011;72030;52.284;20.890;2023-11-19T07:06:17;6.90;;;6.00;;
82391;SDS011;72030;52.284;20.890;2023-11-19T07:08:47;6.30;;;5.50;;
82391;SDS011;72030;52.284;20.890;2023-11-19T07:11:16;5.60;;;5.00;;
82391;SDS011;72030;52.284;20.890;2023-11-19T07:13:45;5.90;;;5.30;;
82391;SDS011;72030;52.284;20.890;2023-11-19T07:16:15;6.20;;;5.60;;
82391;SDS011;72030;52.284;20.890;2023-11-19T07:18:44;6.20;;;5.30;;
82391;SDS011;72030;52.284;20.890;2023-11-19T07:21:16;5.90;;;5.30;;
82391;SDS011;72030;52.284;20.890;2023-11-19T07:23:46;5.80;;;5.20;;
82391;SDS011;72030;52.284;20.890;2023-11-19T07:26:16;6.70;;;6.00;;
82391;SDS011;72030;52.284;20.890;2023-11-19T07:28:45;5.50;;;5.00;;
82391;SDS011;72030;52.284;20.890;2023-11-19T07:31:14;5.40;;;4.80;;
82391;SDS011;72030;52.284;20.890;2023-11-19T07:33:45;6.00;;;5.40;;
82391;SDS011;72030;52.284;20.890;2023-11-19T07:36:15;5.70;;;5.00;;
82391;SDS011;72030;52.284;20.890;2023-11-19T07:38:46;5.50;;;4.90;;
82391;SDS011;72030;52.284;20.890;2023-11-19T07:41:15;5.20;;;4.70;;
82391;SDS011;72030;52.284;20.890;2023-11-19T07:43:44;5.60;;;5.10;;
82391;SDS011;72030;52.284;20.890;2023-11-19T07:46:14;5.20;;;4.70;;
82391;SDS011;72030;52.284;20.890;2023-11-19T07:48:46;5.20;;;4.70;;
82391;SDS011;72030;52.284;20.890;2023-11-19T07:51:16;5.10;;;4.60;;
82391;SDS011;72030;52.284;20.890;2023-11-19T07:53:46;5.90;;;5.30;;
82391;SDS011;72030;52.284;20.890;2023-11-19T07:56:16;4.90;;;4.40;;
82391;SDS011;72030;52.284;20.890;2023-11-19T07:58:45;4.90;;;4.50;;
82391;SDS011;72030;52.284;20.890;2023-11-19T08:01:16;4.70;;;4.20;;
82391;SDS011;72030;52.284;20.890;2023-11-19T08:03:45;5.30;;;4.40;;
82391;SDS011;72030;52.284;20.890;2023-11-19T08:06:14;4.60;;;4.20;;
82391;SDS011;72030;52.284;20.890;2023-11-19T08:08:44;4.00;;;3.70;;
82391;SDS011;72030;52.284;20.890;2023-11-19T08:11:14;5.10;;;4.60;;
82391;SDS011;72030;52.284;20.890;2023-11-19T08:13:43;4.70;;;4.30;;
82391;SDS011;72030;52.284;20.890;2023-11-19T08:16:12;4.80;;;4.30;;
82391;SDS011;72030;52.284;20.890;2023-11-19T08:18:43;5.30;;;4.80;;
82391;SDS011;72030;52.284;20.890;2023-11-19T08:21:12;4.70;;;4.30;;
82391;SDS011;72030;52.284;20.890;2023-11-19T08:23:41;4.50;;;4.10;;
82391;SDS011;72030;52.284;20.890;2023-11-19T08:26:11;4.50;;;4.10;;
82391;SDS011;72030;52.284;20.890;2023-11-19T08:28:42;4.70;;;4.30;;
82391;SDS011;72030;52.284;20.890;2023-11-19T08:31:12;4.40;;;4.00;;
82391;SDS011;72030;52.284;20.890;2023-11-19T08:33:41;4.60;;;4.20;;
82391;SDS011;72030;52.284;20.890;2023-11-19T08:36:15;4.40;;;4.00;;
82391;SDS011;72030;52.284;20.890;2023-11-19T08:38:45;4.40;;;4.00;;
82391;SDS011;72030;52.284;20.890;2023-11-19T08:41:15;4.10;;;3.70;;
82391;SDS011;72030;52.284;20.890;2023-11-19T08:43:46;4.50;;;4.10;;
82391;SDS011;72030;52.284;20.890;2023-11-19T08:46:15;4.40;;;4.00;;
82391;SDS011;72030;52.284;20.890;2023-11-19T08:48:44;4.60;;;4.20;;
82391;SDS011;72030;52.284;20.890;2023-11-19T08:51:13;3.80;;;3.40;;
82391;SDS011;72030;52.284;20.890;2023-11-19T08:53:42;4.40;;;4.00;;
82391;SDS011;72030;52.284;20.890;2023-11-19T08:56:11;4.10;;;3.70;;
82391;SDS011;72030;52.284;20.890;2023-11-19T08:58:40;4.00;;;3.60;;
82391;SDS011;72030;52.284;20.890;2023-11-19T09:01:09;4.00;;;3.70;;
82391;SDS011;72030;52.284;20.890;2023-11-19T09:03:39;3.70;;;3.40;;
82391;SDS011;72030;52.284;20.890;2023-11-19T09:06:08;4.10;;;3.70;;
82391;SDS011;72030;52.284;20.890;2023-11-19T09:08:37;4.80;;;4.30;;
82391;SDS011;72030;52.284;20.890;2023-11-19T09:11:09;4.60;;;4.20;;
82391;SDS011;72030;52.284;20.890;2023-11-19T09:16:07;4.50;;;4.10;;
82391;SDS011;72030;52.284;20.890;2023-11-19T09:18:36;4.00;;;3.60;;
82391;SDS011;72030;52.284;20.890;2023-11-19T09:21:06;4.50;;;4.00;;
82391;SDS011;72030;52.284;20.890;2023-11-19T09:23:35;4.20;;;3.80;;
82391;SDS011;72030;52.284;20.890;2023-11-19T09:26:05;4.20;;;3.30;;
82391;SDS011;72030;52.284;20.890;2023-11-19T09:28:36;5.30;;;4.10;;
82391;SDS011;72030;52.284;20.890;2023-11-19T09:31:13;4.50;;;3.50;;
82391;SDS011;72030;52.284;20.890;2023-11-19T09:33:44;4.20;;;3.80;;
82391;SDS011;72030;52.284;20.890;2023-11-19T09:36:13;5.30;;;4.10;;
82391;SDS011;72030;52.284;20.890;2023-11-19T09:38:43;7.80;;;3.80;;
82391;SDS011;72030;52.284;20.890;2023-11-19T09:41:13;5.40;;;3.70;;
82391;SDS011;72030;52.284;20.890;2023-11-19T09:43:46;4.20;;;3.70;;
82391;SDS011;72030;52.284;20.890;2023-11-19T09:46:15;6.30;;;3.40;;
82391;SDS011;72030;52.284;20.890;2023-11-19T09:48:45;4.00;;;3.60;;
82391;SDS011;72030;52.284;20.890;2023-11-19T09:51:19;4.00;;;3.50;;
82391;SDS011;72030;52.284;20.890;2023-11-19T09:53:49;4.00;;;3.30;;
82391;SDS011;72030;52.284;20.890;2023-11-19T09:56:18;3.70;;;3.30;;
82391;SDS011;72030;52.284;20.890;2023-11-19T09:58:48;4.40;;;3.70;;
82391;SDS011;72030;52.284;20.890;2023-11-19T10:01:18;4.00;;;3.60;;
82391;SDS011;72030;52.284;20.890;2023-11-19T10:03:48;5.10;;;3.70;;
82391;SDS011;72030;52.284;20.890;2023-11-19T10:06:23;4.70;;;3.60;;
82391;SDS011;72030;52.284;20.890;2023-11-19T10:08:54;4.70;;;3.40;;
82391;SDS011;72030;52.284;20.890;2023-11-19T10:11:25;4.70;;;3.80;;
82391;SDS011;72030;52.284;20.890;2023-11-19T10:13:54;4.60;;;3.70;;
82391;SDS011;72030;52.284;20.890;2023-11-19T10:16:29;6.00;;;3.90;;
82391;SDS011;72030;52.284;20.890;2023-11-19T10:18:59;4.00;;;3.60;;
82391;SDS011;72030;52.284;20.890;2023-11-19T10:21:29;6.70;;;4.50;;
82391;SDS011;72030;52.284;20.890;2023-11-19T10:24:01;5.50;;;4.20;;
82391;SDS011;72030;52.284;20.890;2023-11-19T10:26:31;5.30;;;4.20;;
82391;SDS011;72030;52.284;20.890;2023-11-19T10:29:01;4.90;;;4.30;;
82391;SDS011;72030;52.284;20.890;2023-11-19T10:31:30;5.00;;;4.30;;
82391;SDS011;72030;52.284;20.890;2023-11-19T10:34:00;4.90;;;3.60;;
82391;SDS011;72030;52.284;20.890;2023-11-19T10:39:08;6.10;;;4.60;;
82391;SDS011;72030;52.284;20.890;2023-11-19T10:41:39;6.20;;;4.40;;
82391;SDS011;72030;52.284;20.890;2023-11-19T10:44:09;5.00;;;4.30;;
82391;SDS011;72030;52.284;20.890;2023-11-19T10:46:38;7.80;;;4.40;;
82391;SDS011;72030;52.284;20.890;2023-11-19T10:49:10;5.30;;;4.30;;
82391;SDS011;72030;52.284;20.890;2023-11-19T10:51:39;4.90;;;4.10;;
82391;SDS011;72030;52.284;20.890;2023-11-19T10:54:14;6.60;;;4.70;;
82391;SDS011;72030;52.284;20.890;2023-11-19T10:56:47;4.70;;;4.20;;
82391;SDS011;72030;52.284;20.890;2023-11-19T10:59:22;5.00;;;4.40;;
82391;SDS011;72030;52.284;20.890;2023-11-19T11:01:53;5.80;;;4.60;;
82391;SDS011;72030;52.284;20.890;2023-11-19T11:04:24;5.40;;;4.50;;
82391;SDS011;72030;52.284;20.890;2023-11-19T11:06:54;7.90;;;4.30;;
82391;SDS011;72030;52.284;20.890;2023-11-19T11:09:27;5.50;;;4.50;;
82391;SDS011;72030;52.284;20.890;2023-11-19T11:11:57;4.80;;;4.30;;
82391;SDS011;72030;52.284;20.890;2023-11-19T11:16:58;6.70;;;5.00;;
82391;SDS011;72030;52.284;20.890;2023-11-19T11:19:29;7.10;;;4.30;;
82391;SDS011;72030;52.284;20.890;2023-11-19T11:21:58;7.40;;;4.70;;
82391;SDS011;72030;52.284;20.890;2023-11-19T11:24:40;8.50;;;4.60;;
82391;SDS011;72030;52.284;20.890;2023-11-19T11:30:31;9.40;;;5.00;;
82391;SDS011;72030;52.284;20.890;2023-11-19T11:33:16;8.80;;;5.60;;
82391;SDS011;72030;52.284;20.890;2023-11-19T11:35:58;8.30;;;5.10;;
82391;SDS011;72030;52.284;20.890;2023-11-19T11:38:38;7.20;;;5.20;;
82391;SDS011;72030;52.284;20.890;2023-11-19T11:41:19;9.60;;;5.50;;
82391;SDS011;72030;52.284;20.890;2023-11-19T11:43:52;8.20;;;5.00;;
82391;SDS011;72030;52.284;20.890;2023-11-19T11:49:01;7.20;;;4.90;;
82391;SDS011;72030;52.284;20.890;2023-11-19T11:54:08;12.50;;;5.00;;
